sensor_id;sensor_type;location;lat;lon;timestamp;P1;durP1;ratioP1;P2;durP2;ratioP2
68188;SDS011;66299;47.514;19.218;2023-08-20T11:19:27;12.25;;;5.22;;
68188;SDS011;66299;47.514;19.218;2023-08-20T11:21:57;15.02;;;5.60;;
68188;SDS011;66299;47.514;19.218;2023-08-20T11:24:28;10.10;;;5.25;;
68188;SDS011;66299;47.514;19.218;2023-08-20T11:26:58;10.27;;;5.25;;
68188;SDS011;66299;47.514;19.218;2023-08-20T11:29:30;11.70;;;5.00;;
68188;SDS011;66299;47.514;19.218;2023-08-20T11:31:58;12.48;;;5.18;;
68188;SDS011;66299;47.514;19.218;2023-08-20T11:34:35;15.90;;;5.07;;
68188;SDS011;66299;47.514;19.218;2023-08-20T11:37:06;11.00;;;4.97;;
68188;SDS011;66299;47.514;19.218;2023-08-20T11:39:36;10.60;;;4.93;;
68188;SDS011;66299;47.514;19.218;2023-08-20T11:42:07;13.30;;;5.13;;
68188;SDS011;66299;47.514;19.218;2023-08-20T11:44:42;9.85;;;5.07;;
68188;SDS011;66299;47.514;19.218;2023-08-20T11:47:16;15.18;;;4.90;;
68188;SDS011;66299;47.514;19.218;2023-08-20T11:50:06;10.50;;;4.65;;
68188;SDS011;66299;47.514;19.218;2023-08-20T11:52:37;11.23;;;4.65;;
68188;SDS011;66299;47.514;19.218;2023-08-20T11:55:08;11.30;;;4.95;;
68188;SDS011;66299;47.514;19.218;2023-08-20T11:57:38;10.65;;;4.97;;
68188;SDS011;66299;47.514;19.218;2023-08-20T12:00:07;12.20;;;4.68;;
68188;SDS011;66299;47.514;19.218;2023-08-20T12:02:40;10.48;;;4.65;;
68188;SDS011;66299;47.514;19.218;2023-08-20T12:05:13;10.25;;;4.95;;
68188;SDS011;66299;47.514;19.218;2023-08-20T12:07:55;10.13;;;4.60;;
68188;SDS011;66299;47.514;19.218;2023-08-20T12:10:27;10.55;;;4.50;;
68188;SDS011;66299;47.514;19.218;2023-08-20T12:12:58;13.07;;;5.15;;
68188;SDS011;66299;47.514;19.218;2023-08-20T12:18:00;10.75;;;5.10;;
68188;SDS011;66299;47.514;19.218;2023-08-20T12:20:41;14.32;;;5.30;;
68188;SDS011;66299;47.514;19.218;2023-08-20T12:23:14;10.77;;;4.90;;
68188;SDS011;66299;47.514;19.218;2023-08-20T12:25:43;13.13;;;5.65;;
68188;SDS011;66299;47.514;19.218;2023-08-20T12:28:18;16.42;;;5.35;;
68188;SDS011;66299;47.514;19.218;2023-08-20T12:30:49;11.70;;;5.40;;
68188;SDS011;66299;47.514;19.218;2023-08-20T12:35:53;10.73;;;4.60;;
68188;SDS011;66299;47.514;19.218;2023-08-20T12:38:22;9.98;;;4.75;;
68188;SDS011;66299;47.514;19.218;2023-08-20T12:40:51;12.10;;;4.90;;
68188;SDS011;66299;47.514;19.218;2023-08-20T12:43:19;13.48;;;4.68;;
68188;SDS011;66299;47.514;19.218;2023-08-20T12:45:51;12.68;;;4.95;;
68188;SDS011;66299;47.514;19.218;2023-08-20T12:48:20;12.15;;;5.05;;
68188;SDS011;66299;47.514;19.218;2023-08-20T12:50:48;12.15;;;5.07;;
68188;SDS011;66299;47.514;19.218;2023-08-20T12:53:19;12.13;;;5.20;;
68188;SDS011;66299;47.514;19.218;2023-08-20T12:55:48;11.43;;;4.93;;
68188;SDS011;66299;47.514;19.218;2023-08-20T12:58:16;15.90;;;5.57;;
68188;SDS011;66299;47.514;19.218;2023-08-20T13:00:45;10.57;;;5.47;;
68188;SDS011;66299;47.514;19.218;2023-08-20T13:03:19;15.13;;;5.78;;
68188;SDS011;66299;47.514;19.218;2023-08-20T13:05:49;11.77;;;5.70;;
68188;SDS011;66299;47.514;19.218;2023-08-20T13:08:20;16.05;;;5.32;;
68188;SDS011;66299;47.514;19.218;2023-08-20T13:10:50;11.52;;;5.22;;
68188;SDS011;66299;47.514;19.218;2023-08-20T13:13:29;13.05;;;5.68;;
68188;SDS011;66299;47.514;19.218;2023-08-20T13:16:01;10.75;;;5.35;;
68188;SDS011;66299;47.514;19.218;2023-08-20T13:18:34;11.95;;;5.95;;
68188;SDS011;66299;47.514;19.218;2023-08-20T13:21:04;11.68;;;5.60;;
68188;SDS011;66299;47.514;19.218;2023-08-20T13:23:35;13.30;;;5.50;;
68188;SDS011;66299;47.514;19.218;2023-08-20T13:26:03;17.17;;;5.75;;
68188;SDS011;66299;47.514;19.218;2023-08-20T13:28:36;11.55;;;5.68;;
68188;SDS011;66299;47.514;19.218;2023-08-20T13:31:05;12.15;;;5.85;;
68188;SDS011;66299;47.514;19.218;2023-08-20T13:33:34;13.85;;;6.00;;
68188;SDS011;66299;47.514;19.218;2023-08-20T13:36:04;11.07;;;5.60;;
68188;SDS011;66299;47.514;19.218;2023-08-20T13:38:40;11.65;;;5.47;;
68188;SDS011;66299;47.514;19.218;2023-08-20T13:41:09;12.23;;;5.70;;
68188;SDS011;66299;47.514;19.218;2023-08-20T13:43:38;12.05;;;6.05;;
68188;SDS011;66299;47.514;19.218;2023-08-20T13:46:06;11.00;;;5.70;;
68188;SDS011;66299;47.514;19.218;2023-08-20T13:48:35;11.98;;;5.65;;
68188;SDS011;66299;47.514;19.218;2023-08-20T13:51:04;12.68;;;5.70;;
68188;SDS011;66299;47.514;19.218;2023-08-20T13:53:35;14.98;;;6.10;;
68188;SDS011;66299;47.514;19.218;2023-08-20T13:56:06;15.35;;;5.70;;
68188;SDS011;66299;47.514;19.218;2023-08-20T13:58:37;12.60;;;5.80;;
68188;SDS011;66299;47.514;19.218;2023-08-20T14:01:06;11.88;;;5.50;;
68188;SDS011;66299;47.514;19.218;2023-08-20T14:03:35;11.05;;;5.30;;
68188;SDS011;66299;47.514;19.218;2023-08-20T14:06:04;12.07;;;5.63;;
68188;SDS011;66299;47.514;19.218;2023-08-20T14:08:34;17.10;;;5.55;;
68188;SDS011;66299;47.514;19.218;2023-08-20T14:11:03;13.30;;;5.70;;
68188;SDS011;66299;47.514;19.218;2023-08-20T14:13:35;10.40;;;5.70;;
68188;SDS011;66299;47.514;19.218;2023-08-20T14:16:04;13.60;;;5.68;;
68188;SDS011;66299;47.514;19.218;2023-08-20T14:18:33;11.65;;;5.15;;
68188;SDS011;66299;47.514;19.218;2023-08-20T14:21:04;14.05;;;5.35;;
68188;SDS011;66299;47.514;19.218;2023-08-20T14:23:33;13.13;;;5.55;;
68188;SDS011;66299;47.514;19.218;2023-08-20T14:26:05;11.25;;;5.75;;
68188;SDS011;66299;47.514;19.218;2023-08-20T14:28:40;13.93;;;5.25;;
68188;SDS011;66299;47.514;19.218;2023-08-20T14:31:10;11.25;;;5.30;;
68188;SDS011;66299;47.514;19.218;2023-08-20T14:33:40;9.98;;;5.15;;
68188;SDS011;66299;47.514;19.218;2023-08-20T14:36:09;10.00;;;5.43;;
68188;SDS011;66299;47.514;19.218;2023-08-20T14:38:38;15.45;;;5.95;;
68188;SDS011;66299;47.514;19.218;2023-08-20T14:41:07;12.18;;;5.70;;
68188;SDS011;66299;47.514;19.218;2023-08-20T14:43:38;14.05;;;5.47;;
68188;SDS011;66299;47.514;19.218;2023-08-20T14:46:16;15.43;;;5.68;;
68188;SDS011;66299;47.514;19.218;2023-08-20T14:48:48;11.50;;;5.50;;
68188;SDS011;66299;47.514;19.218;2023-08-20T14:51:16;10.95;;;5.10;;
68188;SDS011;66299;47.514;19.218;2023-08-20T14:53:45;13.25;;;6.03;;
68188;SDS011;66299;47.514;19.218;2023-08-20T14:56:14;12.68;;;5.53;;
68188;SDS011;66299;47.514;19.218;2023-08-20T15:01:19;14.98;;;6.43;;
68188;SDS011;66299;47.514;19.218;2023-08-20T15:03:50;15.20;;;6.90;;
68188;SDS011;66299;47.514;19.218;2023-08-20T15:06:19;14.02;;;5.40;;
68188;SDS011;66299;47.514;19.218;2023-08-20T15:08:53;14.40;;;5.53;;
68188;SDS011;66299;47.514;19.218;2023-08-20T15:11:23;14.77;;;7.00;;
68188;SDS011;66299;47.514;19.218;2023-08-20T15:13:57;14.23;;;6.72;;
68188;SDS011;66299;47.514;19.218;2023-08-20T15:16:27;15.90;;;9.60;;
68188;SDS011;66299;47.514;19.218;2023-08-20T15:18:56;12.98;;;5.78;;
68188;SDS011;66299;47.514;19.218;2023-08-20T15:21:33;11.95;;;5.65;;
68188;SDS011;66299;47.514;19.218;2023-08-20T15:24:02;11.68;;;5.80;;
68188;SDS011;66299;47.514;19.218;2023-08-20T15:26:33;23.58;;;13.75;;
68188;SDS011;66299;47.514;19.218;2023-08-20T15:29:04;14.15;;;6.70;;
68188;SDS011;66299;47.514;19.218;2023-08-20T15:34:04;25.48;;;13.55;;
68188;SDS011;66299;47.514;19.218;2023-08-20T15:36:33;45.13;;;26.00;;
68188;SDS011;66299;47.514;19.218;2023-08-20T15:39:03;18.70;;;8.45;;
68188;SDS011;66299;47.514;19.218;2023-08-20T15:41:31;25.45;;;15.68;;
68188;SDS011;66299;47.514;19.218;2023-08-20T15:44:04;13.98;;;7.18;;
68188;SDS011;66299;47.514;19.218;2023-08-20T15:46:33;17.53;;;6.97;;
68188;SDS011;66299;47.514;19.218;2023-08-20T15:49:06;14.02;;;6.63;;
68188;SDS011;66299;47.514;19.218;2023-08-20T15:51:35;13.98;;;6.38;;
68188;SDS011;66299;47.514;19.218;2023-08-20T15:54:04;13.13;;;6.13;;
68188;SDS011;66299;47.514;19.218;2023-08-20T15:56:35;14.07;;;8.13;;
68188;SDS011;66299;47.514;19.218;2023-08-20T15:59:13;17.13;;;8.88;;
68188;SDS011;66299;47.514;19.218;2023-08-20T16:01:42;16.10;;;6.28;;
68188;SDS011;66299;47.514;19.218;2023-08-20T16:04:11;11.25;;;6.00;;
68188;SDS011;66299;47.514;19.218;2023-08-20T16:06:39;12.27;;;6.18;;
68188;SDS011;66299;47.514;19.218;2023-08-20T16:09:14;15.07;;;6.45;;
68188;SDS011;66299;47.514;19.218;2023-08-20T16:11:59;12.93;;;5.70;;
68188;SDS011;66299;47.514;19.218;2023-08-20T16:14:30;12.80;;;6.20;;
68188;SDS011;66299;47.514;19.218;2023-08-20T16:17:02;14.52;;;6.28;;
68188;SDS011;66299;47.514;19.218;2023-08-20T16:19:32;17.58;;;6.55;;
68188;SDS011;66299;47.514;19.218;2023-08-20T16:22:00;14.98;;;5.97;;
68188;SDS011;66299;47.514;19.218;2023-08-20T16:24:29;10.63;;;5.80;;
68188;SDS011;66299;47.514;19.218;2023-08-20T16:27:06;15.40;;;6.10;;
68188;SDS011;66299;47.514;19.218;2023-08-20T16:29:38;15.20;;;6.50;;
68188;SDS011;66299;47.514;19.218;2023-08-20T16:32:07;12.05;;;6.50;;
68188;SDS011;66299;47.514;19.218;2023-08-20T16:34:42;12.02;;;6.47;;
68188;SDS011;66299;47.514;19.218;2023-08-20T16:37:14;14.32;;;6.75;;
68188;SDS011;66299;47.514;19.218;2023-08-20T16:39:46;12.48;;;6.25;;
68188;SDS011;66299;47.514;19.218;2023-08-20T16:44:47;14.30;;;6.53;;
68188;SDS011;66299;47.514;19.218;2023-08-20T16:47:17;13.50;;;6.68;;
68188;SDS011;66299;47.514;19.218;2023-08-20T16:49:50;11.98;;;6.93;;
68188;SDS011;66299;47.514;19.218;2023-08-20T16:52:19;11.98;;;6.70;;
68188;SDS011;66299;47.514;19.218;2023-08-20T16:54:55;11.93;;;6.53;;
68188;SDS011;66299;47.514;19.218;2023-08-20T16:57:26;14.27;;;6.95;;
68188;SDS011;66299;47.514;19.218;2023-08-20T16:59:59;13.95;;;7.40;;
68188;SDS011;66299;47.514;19.218;2023-08-20T17:02:27;14.57;;;7.40;;
68188;SDS011;66299;47.514;19.218;2023-08-20T17:04:58;14.25;;;7.22;;
68188;SDS011;66299;47.514;19.218;2023-08-20T17:07:28;13.48;;;7.30;;
68188;SDS011;66299;47.514;19.218;2023-08-20T17:10:01;13.88;;;6.90;;
68188;SDS011;66299;47.514;19.218;2023-08-20T17:12:34;11.82;;;6.95;;
68188;SDS011;66299;47.514;19.218;2023-08-20T17:15:05;14.77;;;7.70;;
68188;SDS011;66299;47.514;19.218;2023-08-20T17:17:36;12.07;;;7.13;;
68188;SDS011;66299;47.514;19.218;2023-08-20T17:20:09;13.65;;;7.38;;
68188;SDS011;66299;47.514;19.218;2023-08-20T17:22:43;15.77;;;7.53;;
68188;SDS011;66299;47.514;19.218;2023-08-20T17:25:12;16.25;;;7.47;;
68188;SDS011;66299;47.514;19.218;2023-08-20T17:27:51;13.25;;;7.57;;
68188;SDS011;66299;47.514;19.218;2023-08-20T17:30:22;18.13;;;7.70;;
68188;SDS011;66299;47.514;19.218;2023-08-20T17:32:51;13.77;;;8.07;;
68188;SDS011;66299;47.514;19.218;2023-08-20T17:35:19;15.85;;;8.45;;
68188;SDS011;66299;47.514;19.218;2023-08-20T17:37:48;13.88;;;8.27;;
68188;SDS011;66299;47.514;19.218;2023-08-20T17:40:16;16.05;;;7.90;;
68188;SDS011;66299;47.514;19.218;2023-08-20T17:42:47;14.38;;;7.80;;
68188;SDS011;66299;47.514;19.218;2023-08-20T17:45:17;15.57;;;8.48;;
68188;SDS011;66299;47.514;19.218;2023-08-20T17:47:48;14.10;;;8.20;;
68188;SDS011;66299;47.514;19.218;2023-08-20T17:52:49;12.52;;;8.02;;
68188;SDS011;66299;47.514;19.218;2023-08-20T17:55:25;25.98;;;9.13;;
68188;SDS011;66299;47.514;19.218;2023-08-20T17:57:53;17.65;;;9.23;;
68188;SDS011;66299;47.514;19.218;2023-08-20T18:00:22;17.23;;;11.15;;
68188;SDS011;66299;47.514;19.218;2023-08-20T18:02:55;17.90;;;11.52;;
68188;SDS011;66299;47.514;19.218;2023-08-20T18:05:27;17.35;;;11.50;;
68188;SDS011;66299;47.514;19.218;2023-08-20T18:07:55;15.63;;;10.30;;
68188;SDS011;66299;47.514;19.218;2023-08-20T18:10:24;16.60;;;10.25;;
68188;SDS011;66299;47.514;19.218;2023-08-20T18:12:53;20.48;;;10.40;;
68188;SDS011;66299;47.514;19.218;2023-08-20T18:15:35;18.95;;;9.98;;
68188;SDS011;66299;47.514;19.218;2023-08-20T18:18:05;18.23;;;9.85;;
68188;SDS011;66299;47.514;19.218;2023-08-20T18:20:34;16.23;;;10.37;;
68188;SDS011;66299;47.514;19.218;2023-08-20T18:23:03;17.58;;;10.40;;
68188;SDS011;66299;47.514;19.218;2023-08-20T18:25:35;16.85;;;10.57;;
68188;SDS011;66299;47.514;19.218;2023-08-20T18:28:03;18.65;;;10.40;;
68188;SDS011;66299;47.514;19.218;2023-08-20T18:30:33;20.10;;;10.57;;
68188;SDS011;66299;47.514;19.218;2023-08-20T18:33:07;22.60;;;10.60;;
68188;SDS011;66299;47.514;19.218;2023-08-20T18:35:36;17.85;;;10.77;;
68188;SDS011;66299;47.514;19.218;2023-08-20T18:38:06;20.75;;;10.88;;
68188;SDS011;66299;47.514;19.218;2023-08-20T18:40:34;17.90;;;11.20;;
68188;SDS011;66299;47.514;19.218;2023-08-20T18:45:34;17.70;;;11.23;;
68188;SDS011;66299;47.514;19.218;2023-08-20T18:48:09;21.13;;;11.35;;
68188;SDS011;66299;47.514;19.218;2023-08-20T18:50:38;20.38;;;11.50;;
68188;SDS011;66299;47.514;19.218;2023-08-20T18:55:39;18.30;;;11.93;;
68188;SDS011;66299;47.514;19.218;2023-08-20T18:58:08;20.50;;;11.95;;
68188;SDS011;66299;47.514;19.218;2023-08-20T19:00:37;20.80;;;12.07;;
68188;SDS011;66299;47.514;19.218;2023-08-20T19:03:10;21.25;;;12.13;;
68188;SDS011;66299;47.514;19.218;2023-08-20T19:05:45;18.95;;;12.27;;
68188;SDS011;66299;47.514;19.218;2023-08-20T19:08:15;19.17;;;11.73;;
68188;SDS011;66299;47.514;19.218;2023-08-20T19:10:46;20.65;;;11.88;;
68188;SDS011;66299;47.514;19.218;2023-08-20T19:13:15;20.65;;;12.30;;
68188;SDS011;66299;47.514;19.218;2023-08-20T19:15:50;20.38;;;12.23;;
68188;SDS011;66299;47.514;19.218;2023-08-20T19:18:22;20.13;;;11.82;;
68188;SDS011;66299;47.514;19.218;2023-08-20T19:20:56;19.83;;;12.10;;
68188;SDS011;66299;47.514;19.218;2023-08-20T19:23:25;18.85;;;12.00;;
68188;SDS011;66299;47.514;19.218;2023-08-20T19:25:55;21.50;;;12.25;;
68188;SDS011;66299;47.514;19.218;2023-08-20T19:28:24;20.73;;;11.93;;
68188;SDS011;66299;47.514;19.218;2023-08-20T19:30:57;23.90;;;12.68;;
68188;SDS011;66299;47.514;19.218;2023-08-20T19:33:27;22.25;;;11.65;;
68188;SDS011;66299;47.514;19.218;2023-08-20T19:36:00;20.45;;;12.35;;
68188;SDS011;66299;47.514;19.218;2023-08-20T19:38:33;20.08;;;12.25;;
68188;SDS011;66299;47.514;19.218;2023-08-20T19:41:05;22.58;;;13.07;;
68188;SDS011;66299;47.514;19.218;2023-08-20T19:43:35;21.98;;;13.40;;
68188;SDS011;66299;47.514;19.218;2023-08-20T19:46:05;21.38;;;13.30;;
68188;SDS011;66299;47.514;19.218;2023-08-20T19:48:36;20.88;;;13.57;;
68188;SDS011;66299;47.514;19.218;2023-08-20T19:51:07;22.95;;;13.10;;
68188;SDS011;66299;47.514;19.218;2023-08-20T19:53:38;18.35;;;12.15;;
68188;SDS011;66299;47.514;19.218;2023-08-20T19:56:11;19.95;;;12.93;;
68188;SDS011;66299;47.514;19.218;2023-08-20T19:58:42;23.20;;;13.18;;
68188;SDS011;66299;47.514;19.218;2023-08-20T20:01:15;21.85;;;13.73;;
68188;SDS011;66299;47.514;19.218;2023-08-20T20:03:51;19.25;;;13.48;;
68188;SDS011;66299;47.514;19.218;2023-08-20T20:06:22;17.98;;;13.15;;
68188;SDS011;66299;47.514;19.218;2023-08-20T20:08:51;19.83;;;13.18;;
68188;SDS011;66299;47.514;19.218;2023-08-20T20:11:21;20.17;;;13.40;;
68188;SDS011;66299;47.514;19.218;2023-08-20T20:16:21;21.90;;;13.13;;
68188;SDS011;66299;47.514;19.218;2023-08-20T20:18:55;21.58;;;14.35;;
68188;SDS011;66299;47.514;19.218;2023-08-20T20:21:24;22.05;;;14.07;;
68188;SDS011;66299;47.514;19.218;2023-08-20T20:23:53;21.33;;;14.38;;
68188;SDS011;66299;47.514;19.218;2023-08-20T20:26:25;28.15;;;14.57;;
68188;SDS011;66299;47.514;19.218;2023-08-20T20:28:54;21.13;;;13.68;;
68188;SDS011;66299;47.514;19.218;2023-08-20T20:31:23;21.08;;;14.20;;
68188;SDS011;66299;47.514;19.218;2023-08-20T20:33:56;21.83;;;14.63;;
68188;SDS011;66299;47.514;19.218;2023-08-20T20:36:25;22.45;;;14.57;;
68188;SDS011;66299;47.514;19.218;2023-08-20T20:38:55;22.83;;;14.18;;
68188;SDS011;66299;47.514;19.218;2023-08-20T20:41:24;21.88;;;13.73;;
68188;SDS011;66299;47.514;19.218;2023-08-20T20:43:52;22.35;;;14.07;;
68188;SDS011;66299;47.514;19.218;2023-08-20T20:46:22;27.33;;;14.57;;
68188;SDS011;66299;47.514;19.218;2023-08-20T20:48:55;22.95;;;14.50;;
68188;SDS011;66299;47.514;19.218;2023-08-20T20:51:23;20.02;;;14.52;;
68188;SDS011;66299;47.514;19.218;2023-08-20T20:53:52;21.58;;;14.95;;
68188;SDS011;66299;47.514;19.218;2023-08-20T20:56:31;24.70;;;15.35;;
68188;SDS011;66299;47.514;19.218;2023-08-20T20:58:59;25.27;;;15.07;;
68188;SDS011;66299;47.514;19.218;2023-08-20T21:01:30;22.73;;;15.57;;
68188;SDS011;66299;47.514;19.218;2023-08-20T21:04:07;23.45;;;15.48;;
68188;SDS011;66299;47.514;19.218;2023-08-20T21:06:37;24.15;;;14.27;;
68188;SDS011;66299;47.514;19.218;2023-08-20T21:09:05;21.77;;;14.77;;
68188;SDS011;66299;47.514;19.218;2023-08-20T21:11:34;23.15;;;14.77;;
68188;SDS011;66299;47.514;19.218;2023-08-20T21:14:03;20.50;;;14.38;;
68188;SDS011;66299;47.514;19.218;2023-08-20T21:16:33;22.65;;;14.48;;
68188;SDS011;66299;47.514;19.218;2023-08-20T21:19:11;26.42;;;14.77;;
68188;SDS011;66299;47.514;19.218;2023-08-20T21:21:45;20.10;;;14.60;;
68188;SDS011;66299;47.514;19.218;2023-08-20T21:24:15;23.92;;;14.63;;
68188;SDS011;66299;47.514;19.218;2023-08-20T21:26:46;23.35;;;15.13;;
68188;SDS011;66299;47.514;19.218;2023-08-20T21:29:18;26.95;;;14.50;;
68188;SDS011;66299;47.514;19.218;2023-08-20T21:31:47;22.67;;;14.98;;
68188;SDS011;66299;47.514;19.218;2023-08-20T21:34:17;21.45;;;14.70;;
68188;SDS011;66299;47.514;19.218;2023-08-20T21:36:45;22.65;;;15.23;;
68188;SDS011;66299;47.514;19.218;2023-08-20T21:39:14;24.25;;;15.48;;
68188;SDS011;66299;47.514;19.218;2023-08-20T21:41:45;25.77;;;15.25;;
68188;SDS011;66299;47.514;19.218;2023-08-20T21:46:51;23.60;;;14.70;;
68188;SDS011;66299;47.514;19.218;2023-08-20T21:49:24;24.10;;;14.57;;
68188;SDS011;66299;47.514;19.218;2023-08-20T21:51:53;23.13;;;15.13;;
68188;SDS011;66299;47.514;19.218;2023-08-20T21:54:29;22.25;;;15.02;;
68188;SDS011;66299;47.514;19.218;2023-08-20T21:56:58;24.45;;;15.85;;
68188;SDS011;66299;47.514;19.218;2023-08-20T21:59:26;28.70;;;16.38;;
68188;SDS011;66299;47.514;19.218;2023-08-20T22:02:00;24.50;;;15.90;;
68188;SDS011;66299;47.514;19.218;2023-08-20T22:04:45;26.63;;;16.02;;
68188;SDS011;66299;47.514;19.218;2023-08-20T22:07:14;27.40;;;17.55;;
68188;SDS011;66299;47.514;19.218;2023-08-20T22:09:43;24.40;;;17.45;;
68188;SDS011;66299;47.514;19.218;2023-08-20T22:12:11;29.20;;;18.33;;
68188;SDS011;66299;47.514;19.218;2023-08-20T22:14:43;27.20;;;18.20;;
68188;SDS011;66299;47.514;19.218;2023-08-20T22:17:13;27.48;;;18.15;;
68188;SDS011;66299;47.514;19.218;2023-08-20T22:19:42;29.05;;;18.13;;
68188;SDS011;66299;47.514;19.218;2023-08-20T22:22:20;26.85;;;17.90;;
68188;SDS011;66299;47.514;19.218;2023-08-20T22:24:49;29.50;;;17.80;;
68188;SDS011;66299;47.514;19.218;2023-08-20T22:27:22;29.85;;;18.08;;
68188;SDS011;66299;47.514;19.218;2023-08-20T22:29:52;25.88;;;17.17;;
68188;SDS011;66299;47.514;19.218;2023-08-20T22:32:26;25.83;;;17.38;;
68188;SDS011;66299;47.514;19.218;2023-08-20T22:34:58;27.60;;;17.92;;
68188;SDS011;66299;47.514;19.218;2023-08-20T22:37:30;26.00;;;17.15;;
68188;SDS011;66299;47.514;19.218;2023-08-20T22:39:59;24.17;;;17.10;;
68188;SDS011;66299;47.514;19.218;2023-08-20T22:42:27;27.08;;;17.75;;
68188;SDS011;66299;47.514;19.218;2023-08-20T22:44:58;26.38;;;17.35;;
68188;SDS011;66299;47.514;19.218;2023-08-20T22:47:27;24.13;;;16.13;;
68188;SDS011;66299;47.514;19.218;2023-08-20T22:49:56;26.15;;;16.25;;
68188;SDS011;66299;47.514;19.218;2023-08-20T22:52:25;22.92;;;15.68;;
68188;SDS011;66299;47.514;19.218;2023-08-20T22:54:55;29.25;;;16.23;;
68188;SDS011;66299;47.514;19.218;2023-08-20T22:57:24;23.90;;;15.68;;
68188;SDS011;66299;47.514;19.218;2023-08-20T22:59:52;23.42;;;16.40;;
68188;SDS011;66299;47.514;19.218;2023-08-20T23:02:24;27.15;;;15.10;;
68188;SDS011;66299;47.514;19.218;2023-08-20T23:04:58;22.42;;;14.93;;
68188;SDS011;66299;47.514;19.218;2023-08-20T23:07:26;26.15;;;14.88;;
68188;SDS011;66299;47.514;19.218;2023-08-20T23:09:57;26.42;;;14.77;;
68188;SDS011;66299;47.514;19.218;2023-08-20T23:12:26;23.20;;;14.43;;
68188;SDS011;66299;47.514;19.218;2023-08-20T23:14:54;25.25;;;15.02;;
68188;SDS011;66299;47.514;19.218;2023-08-20T23:17:25;23.50;;;15.65;;
68188;SDS011;66299;47.514;19.218;2023-08-20T23:19:54;24.38;;;15.48;;
68188;SDS011;66299;47.514;19.218;2023-08-20T23:22:29;25.02;;;15.07;;
68188;SDS011;66299;47.514;19.218;2023-08-20T23:24:59;20.60;;;14.32;;
68188;SDS011;66299;47.514;19.218;2023-08-20T23:27:29;24.88;;;14.50;;
68188;SDS011;66299;47.514;19.218;2023-08-20T23:29:59;22.75;;;14.90;;
68188;SDS011;66299;47.514;19.218;2023-08-20T23:32:28;25.38;;;14.55;;
68188;SDS011;66299;47.514;19.218;2023-08-20T23:34:57;22.10;;;14.35;;
68188;SDS011;66299;47.514;19.218;2023-08-20T23:37:27;21.10;;;14.50;;
68188;SDS011;66299;47.514;19.218;2023-08-20T23:39:59;22.73;;;14.88;;
68188;SDS011;66299;47.514;19.218;2023-08-20T23:42:31;23.15;;;14.55;;
68188;SDS011;66299;47.514;19.218;2023-08-20T23:45:00;22.48;;;13.45;;
68188;SDS011;66299;47.514;19.218;2023-08-20T23:47:28;22.23;;;14.70;;
68188;SDS011;66299;47.514;19.218;2023-08-20T23:50:00;22.33;;;14.63;;
68188;SDS011;66299;47.514;19.218;2023-08-20T23:52:29;21.73;;;14.48;;
68188;SDS011;66299;47.514;19.218;2023-08-20T23:55:00;23.50;;;15.05;;
68188;SDS011;66299;47.514;19.218;2023-08-20T23:57:30;28.38;;;15.18;;
68188;SDS011;66299;47.514;19.218;2023-08-20T23:59:58;21.92;;;14.95;;
